Time;durP1;ratioP1;P1;durP2;ratioP2;P2;SDS_P1;SDS_P2;PMS_P1;PMS_P2;Temp;Humidity;BMP_temperature;BMP_pressure;BME280_temperature;BME280_humidity;BME280_pressure;Samples;Min_cycle;Max_cycle;Signal;HPM_P1;HPM_P2
2021/09/09 00:01:40;;;;;;;8.70;7.40;;;;;;;10.15;80.52;96752.34;6334094;22;20087;-93
2021/09/09 00:04:06;;;;;;;10.82;7.65;;;;;;;10.26;80.30;96764.78;6307962;22;20003;-93
2021/09/09 00:06:31;;;;;;;11.30;7.97;;;;;;;10.23;80.94;96761.75;6307657;22;20011;-92
2021/09/09 00:08:57;;;;;;;10.30;8.25;;;;;;;10.19;80.33;96765.78;6307885;22;20079;-93
2021/09/09 00:11:22;;;;;;;11.10;7.72;;;;;;;10.03;81.51;96750.47;6307802;22;20491;-93
2021/09/09 00:13:48;;;;;;;10.52;7.40;;;;;;;10.12;81.52;96774.16;6307584;22;20003;-93
2021/09/09 00:16:14;;;;;;;10.48;7.65;;;;;;;10.15;80.60;96771.34;6308627;22;19999;-95
2021/09/09 00:18:40;;;;;;;11.48;8.27;;;;;;;10.12;80.56;96772.25;6309674;22;20471;-93
2021/09/09 00:21:06;;;;;;;9.60;8.07;;;;;;;9.94;81.11;96750.41;6309775;22;20086;-93
2021/09/09 00:23:32;;;;;;;10.50;7.90;;;;;;;10.08;81.07;96768.88;6309702;22;20435;-95
2021/09/09 00:25:58;;;;;;;9.80;7.72;;;;;;;9.94;80.04;96748.44;6309655;22;20393;-93
2021/09/09 00:28:23;;;;;;;10.02;8.10;;;;;;;10.07;80.66;96778.25;6309651;22;20007;-94
2021/09/09 00:30:51;;;;;;;14.40;8.10;;;;;;;9.97;80.82;96754.97;6309920;22;20014;-93
2021/09/09 00:33:18;;;;;;;10.18;8.07;;;;;;;9.95;82.01;96754.63;6309403;22;20019;-93
2021/09/09 00:35:44;;;;;;;10.18;7.75;;;;;;;9.92;80.97;96756.28;6309932;22;19999;-94
2021/09/09 00:38:09;;;;;;;10.73;8.15;;;;;;;9.95;81.79;96765.47;6309935;22;20090;-93
2021/09/09 00:40:35;;;;;;;14.43;8.00;;;;;;;9.93;81.03;96781.47;6309804;22;20026;-94
2021/09/09 00:43:00;;;;;;;13.10;7.60;;;;;;;10.07;81.11;96796.47;6309457;22;20010;-93
2021/09/09 00:45:26;;;;;;;11.18;7.88;;;;;;;9.94;79.91;96777.53;6309746;22;20090;-93
2021/09/09 00:47:51;;;;;;;13.23;7.43;;;;;;;9.87;80.92;96765.00;6309400;22;20095;-93
2021/09/09 00:50:17;;;;;;;14.27;7.97;;;;;;;9.84;80.68;96774.00;6309703;22;19999;-94
2021/09/09 00:52:48;;;;;;;11.38;8.13;;;;;;;9.77;81.14;96763.41;6309585;22;20003;-93
2021/09/09 00:55:18;;;;;;;10.40;7.80;;;;;;;9.94;80.63;96791.09;6309741;22;20343;-93
2021/09/09 00:57:44;;;;;;;11.50;7.82;;;;;;;9.77;80.35;96776.97;6309361;22;20003;-93
2021/09/09 01:00:12;;;;;;;13.90;8.57;;;;;;;9.88;80.59;96799.06;6309494;22;20092;-93
2021/09/09 01:02:38;;;;;;;10.23;7.72;;;;;;;9.64;81.10;96765.44;6284057;22;20352;-93
2021/09/09 01:05:04;;;;;;;10.05;8.35;;;;;;;9.61;80.64;96766.31;6309291;22;20003;-94
2021/09/09 01:07:29;;;;;;;11.15;8.57;;;;;;;9.67;80.89;96770.72;6309569;22;20011;-94
2021/09/09 01:09:57;;;;;;;9.88;8.13;;;;;;;9.73;81.38;96770.16;6309363;22;20023;-93
2021/09/09 01:12:22;;;;;;;42.50;9.98;;;;;;;9.66;82.26;96768.47;6309212;22;20442;-92
2021/09/09 01:14:48;;;;;;;13.18;7.85;;;;;;;9.67;81.37;96767.28;6309520;22;19999;-95
2021/09/09 01:17:14;;;;;;;12.27;8.27;;;;;;;9.49;81.78;96762.47;6309376;22;20060;-93
2021/09/09 01:19:40;;;;;;;10.52;7.60;;;;;;;9.37;81.07;96742.31;6309096;22;20011;-93
2021/09/09 01:22:06;;;;;;;15.57;8.07;;;;;;;9.55;81.25;96778.94;6309593;22;20007;-93
2021/09/09 01:24:32;;;;;;;12.95;8.38;;;;;;;9.42;82.56;96778.97;6309726;22;20014;-92
2021/09/09 01:27:03;;;;;;;22.38;8.55;;;;;;;9.24;81.70;96740.88;6308865;22;20003;-94
2021/09/09 01:29:31;;;;;;;9.90;8.48;;;;;;;9.59;81.34;96793.88;6309026;22;20018;-94
2021/09/09 01:31:57;;;;;;;13.48;8.38;;;;;;;9.47;81.00;96780.38;6308945;22;20019;-93
2021/09/09 01:34:24;;;;;;;10.90;7.90;;;;;;;9.34;80.95;96758.72;6309016;22;20006;-93
2021/09/09 01:36:51;;;;;;;12.35;7.90;;;;;;;9.14;81.44;96740.78;6309369;22;19999;-94
2021/09/09 01:39:16;;;;;;;10.43;7.68;;;;;;;9.28;80.87;96763.22;6308844;22;20093;-93
2021/09/09 01:41:42;;;;;;;12.02;7.95;;;;;;;9.35;81.49;96771.09;6308997;22;20440;-92
2021/09/09 01:44:08;;;;;;;12.30;8.20;;;;;;;9.28;81.84;96766.66;6309100;22;20014;-94
2021/09/09 01:46:35;;;;;;;13.25;8.60;;;;;;;9.43;81.68;96794.81;6308976;22;20325;-92
2021/09/09 01:49:01;;;;;;;10.32;8.00;;;;;;;9.46;81.39;96795.88;6309050;22;20041;-94
2021/09/09 01:51:27;;;;;;;8.82;7.53;;;;;;;9.40;81.66;96801.09;6308904;22;20010;-93
2021/09/09 01:53:56;;;;;;;10.98;8.20;;;;;;;9.13;80.99;96763.66;6308962;22;20026;-93
2021/09/09 01:56:22;;;;;;;9.90;8.32;;;;;;;9.24;81.05;96782.28;6308869;22;20003;-93
2021/09/09 01:58:48;;;;;;;10.90;7.72;;;;;;;9.19;81.36;96774.72;6309060;22;20017;-93
2021/09/09 02:01:14;;;;;;;12.18;8.10;;;;;;;9.10;80.92;96767.25;6308880;22;20034;-93
2021/09/09 02:03:40;;;;;;;11.90;8.55;;;;;;;8.92;82.14;96753.53;6308839;22;20434;-93
2021/09/09 02:06:05;;;;;;;10.38;8.35;;;;;;;8.99;82.27;96774.97;6308700;22;20336;-93
2021/09/09 02:08:31;;;;;;;12.15;7.82;;;;;;;8.99;81.74;96758.72;6308962;22;20133;-94
2021/09/09 02:10:56;;;;;;;11.70;8.52;;;;;;;9.08;81.51;96779.72;6308969;22;20006;-94
2021/09/09 02:13:22;;;;;;;11.60;7.82;;;;;;;8.90;81.33;96753.97;6308783;22;20063;-92
2021/09/09 02:15:47;;;;;;;10.77;7.65;;;;;;;8.85;81.28;96749.13;6308993;22;20056;-93
2021/09/09 02:18:13;;;;;;;11.98;8.13;;;;;;;8.98;81.74;96767.28;6308532;22;20061;-92
2021/09/09 02:20:39;;;;;;;12.15;8.32;;;;;;;9.07;81.18;96794.47;6308638;22;20343;-92
2021/09/09 02:23:05;;;;;;;10.52;8.23;;;;;;;8.85;81.30;96751.06;6308515;22;20003;-92
2021/09/09 02:25:31;;;;;;;11.40;8.50;;;;;;;8.87;81.63;96759.50;6308413;22;20056;-93
2021/09/09 02:27:56;;;;;;;10.95;8.07;;;;;;;8.95;81.90;96770.84;6308494;22;20037;-93
2021/09/09 02:30:22;;;;;;;65.88;10.95;;;;;;;8.74;82.66;96743.28;6308346;22;20086;-92
2021/09/09 02:32:48;;;;;;;12.57;8.65;;;;;;;8.82;82.09;96755.38;6308560;22;20022;-93
2021/09/09 02:35:14;;;;;;;11.80;8.52;;;;;;;8.98;81.56;96784.28;6308777;22;19999;-94
2021/09/09 02:37:40;;;;;;;11.32;8.88;;;;;;;8.75;81.92;96754.88;6308566;22;20457;-93
2021/09/09 02:40:07;;;;;;;14.75;8.77;;;;;;;9.01;81.41;96788.84;6307996;22;20030;-92
2021/09/09 02:42:33;;;;;;;10.88;8.43;;;;;;;8.78;81.41;96757.44;6308446;22;20011;-93
2021/09/09 02:44:59;;;;;;;12.90;8.07;;;;;;;8.50;81.20;96726.63;6308232;22;20415;-94
2021/09/09 02:47:24;;;;;;;11.00;8.35;;;;;;;8.78;81.16;96773.69;6308695;22;20049;-92
2021/09/09 02:49:50;;;;;;;9.50;8.02;;;;;;;8.74;80.39;96764.94;6308293;22;19999;-93
2021/09/09 02:52:15;;;;;;;11.30;8.60;;;;;;;8.72;81.68;96769.28;6308499;22;20003;-93
2021/09/09 02:54:41;;;;;;;9.68;8.32;;;;;;;8.58;81.37;96738.00;6308522;22;20098;-93
2021/09/09 02:57:07;;;;;;;16.30;8.77;;;;;;;8.65;82.27;96770.25;6307920;22;20003;-92
2021/09/09 02:59:32;;;;;;;12.30;9.18;;;;;;;8.65;81.39;96771.00;6308047;22;20003;-94
2021/09/09 03:01:58;;;;;;;11.65;8.70;;;;;;;8.55;81.58;96746.97;6308163;22;20321;-93
2021/09/09 03:04:24;;;;;;;13.10;8.60;;;;;;;8.63;81.73;96751.75;6308632;22;20424;-93
2021/09/09 03:06:49;;;;;;;12.07;9.02;;;;;;;8.63;81.26;96749.03;6308116;22;20045;-92
2021/09/09 03:09:15;;;;;;;12.40;9.23;;;;;;;8.58;81.07;96751.53;6308148;22;20454;-94
2021/09/09 03:11:40;;;;;;;14.32;8.70;;;;;;;8.75;81.34;96771.13;6307996;22;19999;-93
2021/09/09 03:14:06;;;;;;;10.82;8.80;;;;;;;8.46;80.61;96739.50;6334160;22;20313;-93
2021/09/09 03:16:31;;;;;;;13.02;9.40;;;;;;;8.48;81.34;96744.50;6308171;22;20009;-92
2021/09/09 03:18:57;;;;;;;10.93;8.60;;;;;;;8.40;81.23;96736.59;6308011;22;20006;-92
2021/09/09 03:21:22;;;;;;;13.52;8.60;;;;;;;8.35;81.45;96745.22;6307699;22;19999;-93
2021/09/09 03:23:48;;;;;;;11.40;8.52;;;;;;;8.45;81.47;96750.78;6308021;22;20013;-93
2021/09/09 03:26:13;;;;;;;10.73;8.57;;;;;;;8.44;81.58;96760.84;6307609;22;19999;-93
2021/09/09 03:28:39;;;;;;;11.38;9.43;;;;;;;8.61;81.79;96791.25;6334181;22;20069;-93
2021/09/09 03:31:05;;;;;;;13.98;8.85;;;;;;;8.35;81.67;96753.34;6305896;22;20014;-92
2021/09/09 03:33:30;;;;;;;14.90;9.43;;;;;;;8.37;81.58;96758.38;6251340;22;20008;-93
2021/09/09 03:35:56;;;;;;;14.05;9.10;;;;;;;8.37;81.15;96753.72;6251288;22;20082;-94
2021/09/09 03:38:21;;;;;;;12.88;9.40;;;;;;;8.43;81.86;96764.00;6251483;22;20014;-94
2021/09/09 03:40:47;;;;;;;12.75;9.30;;;;;;;8.22;81.51;96741.75;6251733;22;20053;-94
2021/09/09 03:43:12;;;;;;;10.38;8.40;;;;;;;8.35;81.85;96758.00;6251305;22;20011;-91
2021/09/09 03:45:38;;;;;;;12.45;9.00;;;;;;;8.41;80.83;96767.13;6251085;22;20004;-94
2021/09/09 03:48:03;;;;;;;13.77;9.07;;;;;;;8.49;82.23;96794.75;6251175;22;20003;-93
2021/09/09 03:50:29;;;;;;;13.38;8.85;;;;;;;8.23;82.07;96754.09;6250730;22;20012;-93
2021/09/09 03:52:54;;;;;;;13.48;8.57;;;;;;;8.04;81.88;96731.47;6251279;22;20428;-92
2021/09/09 03:55:20;;;;;;;11.60;8.98;;;;;;;8.32;81.86;96764.28;6251334;22;20006;-92
2021/09/09 03:57:47;;;;;;;14.40;9.30;;;;;;;8.36;82.21;96773.84;6251172;22;19999;-92
2021/09/09 04:00:13;;;;;;;14.98;9.10;;;;;;;8.44;81.41;96784.44;6251163;22;20006;-94
2021/09/09 04:02:39;;;;;;;13.00;9.30;;;;;;;8.23;82.00;96762.22;6251067;22;20007;-93
2021/09/09 04:05:05;;;;;;;13.65;9.40;;;;;;;8.24;81.03;96762.97;6251052;22;20036;-94
2021/09/09 04:07:31;;;;;;;13.75;9.63;;;;;;;8.28;81.53;96769.78;6251056;22;20027;-93
2021/09/09 04:09:57;;;;;;;11.95;9.45;;;;;;;8.19;81.62;96766.22;6250955;22;20447;-93
2021/09/09 04:12:23;;;;;;;13.77;10.13;;;;;;;8.09;81.43;96759.91;6251432;22;20003;-92
2021/09/09 04:14:48;;;;;;;15.27;10.05;;;;;;;8.25;81.48;96767.19;6251087;22;20082;-92
2021/09/09 04:17:14;;;;;;;13.13;9.50;;;;;;;8.00;80.77;96738.94;6251079;22;20008;-92
2021/09/09 04:19:39;;;;;;;12.15;9.27;;;;;;;7.94;81.17;96737.19;6252167;22;20007;-92
2021/09/09 04:22:09;;;;;;;14.43;9.52;;;;;;;8.10;81.71;96747.94;6251069;22;20053;-93
2021/09/09 04:24:35;;;;;;;16.55;10.23;;;;;;;8.10;81.75;96750.63;6251369;22;20028;-91
2021/09/09 04:27:02;;;;;;;13.63;9.90;;;;;;;8.04;82.24;96744.22;6251629;22;20425;-92
2021/09/09 04:29:27;;;;;;;14.93;10.35;;;;;;;7.92;82.22;96728.75;6250982;22;20470;-91
2021/09/09 04:31:53;;;;;;;15.48;10.00;;;;;;;8.03;81.98;96757.00;6270726;22;20016;-95
2021/09/09 04:34:19;;;;;;;13.13;10.30;;;;;;;8.00;82.21;96744.34;6307471;22;20011;-92
2021/09/09 04:36:44;;;;;;;15.95;10.00;;;;;;;8.06;82.26;96769.66;6307421;22;19999;-92
2021/09/09 04:39:10;;;;;;;14.15;10.57;;;;;;;8.34;82.96;96783.53;6307435;22;20007;-92
2021/09/09 04:41:37;;;;;;;15.50;11.45;;;;;;;8.15;83.76;96755.50;6307952;22;20052;-92
2021/09/09 04:44:04;;;;;;;21.05;11.85;;;;;;;8.06;84.21;96728.34;6307599;22;20007;-93
2021/09/09 04:46:30;;;;;;;16.98;12.07;;;;;;;8.18;84.54;96756.59;6307477;22;20030;-92
2021/09/09 04:48:55;;;;;;;17.55;12.27;;;;;;;8.47;83.56;96791.69;6307468;22;20006;-94
2021/09/09 04:51:21;;;;;;;16.35;11.90;;;;;;;8.17;84.37;96745.00;6307362;22;20010;-94
2021/09/09 04:53:47;;;;;;;20.88;12.50;;;;;;;8.44;84.37;96765.50;6307436;22;20086;-94
2021/09/09 04:56:13;;;;;;;16.05;13.45;;;;;;;8.50;85.02;96775.34;6307420;22;19999;-92
2021/09/09 04:58:38;;;;;;;20.15;13.60;;;;;;;8.39;84.98;96762.13;6307455;22;19999;-94
2021/09/09 05:01:04;;;;;;;20.42;14.93;;;;;;;8.60;85.37;96768.84;6307518;22;20007;-92
2021/09/09 05:03:29;;;;;;;21.35;14.77;;;;;;;8.81;85.58;96780.97;6309288;22;20007;-92
2021/09/09 05:05:55;;;;;;;19.52;14.52;;;;;;;8.47;86.14;96729.44;6309049;22;19999;-95
2021/09/09 05:08:21;;;;;;;20.50;14.38;;;;;;;8.66;85.81;96758.22;6309161;22;20003;-93
2021/09/09 05:10:46;;;;;;;21.70;14.27;;;;;;;8.73;86.59;96759.94;6309174;22;20505;-93
2021/09/09 05:13:11;;;;;;;19.33;14.20;;;;;;;8.63;87.43;96740.16;6309270;22;20326;-94
2021/09/09 05:15:37;;;;;;;19.30;13.88;;;;;;;8.78;87.28;96741.19;6309247;22;20073;-93
2021/09/09 05:18:02;;;;;;;21.63;14.15;;;;;;;8.85;87.43;96743.69;6309034;22;20009;-93
2021/09/09 05:20:28;;;;;;;25.75;15.27;;;;;;;8.84;87.38;96744.13;6309509;22;19999;-93
2021/09/09 05:22:53;;;;;;;26.85;15.00;;;;;;;8.99;86.60;96761.41;6309105;22;20071;-93
2021/09/09 05:25:19;;;;;;;24.77;14.63;;;;;;;8.95;87.13;96749.97;6309122;22;20003;-92
2021/09/09 05:27:44;;;;;;;24.17;14.30;;;;;;;9.10;86.72;96763.78;6308955;22;20000;-93
2021/09/09 05:30:10;;;;;;;26.73;14.05;;;;;;;9.20;86.74;96765.38;6309099;22;20002;-93
2021/09/09 05:32:36;;;;;;;22.85;14.02;;;;;;;9.24;86.42;96765.28;6308644;22;20025;-92
2021/09/09 05:35:02;;;;;;;25.67;14.65;;;;;;;9.39;86.79;96786.03;6308925;22;20090;-93
2021/09/09 05:37:27;;;;;;;21.83;14.18;;;;;;;9.29;86.91;96762.00;6308816;22;20403;-93
2021/09/09 05:39:53;;;;;;;21.50;14.30;;;;;;;9.25;86.66;96739.69;6308816;22;20061;-93
2021/09/09 05:42:20;;;;;;;27.08;13.68;;;;;;;9.30;87.10;96742.59;6308984;22;20003;-92
2021/09/09 05:44:46;;;;;;;26.27;13.73;;;;;;;9.41;86.83;96750.34;6308471;22;20011;-92
2021/09/09 05:47:12;;;;;;;30.02;13.98;;;;;;;9.44;85.99;96752.19;6307275;22;20003;-91
2021/09/09 05:49:38;;;;;;;30.92;15.13;;;;;;;9.59;85.16;96779.56;6307656;22;20732;-92
2021/09/09 05:52:05;;;;;;;29.00;15.23;;;;;;;9.58;85.71;96775.31;6308079;22;19999;-94
2021/09/09 05:54:31;;;;;;;29.80;16.52;;;;;;;9.43;86.38;96756.09;6306996;22;20003;-92
2021/09/09 05:56:57;;;;;;;46.83;21.65;;;;;;;9.65;86.28;96767.72;6308318;22;20428;-94
2021/09/09 05:59:22;;;;;;;51.47;24.33;;;;;;;9.70;85.82;96758.25;6308273;22;20072;-94
2021/09/09 06:01:49;;;;;;;50.88;25.85;;;;;;;9.77;87.43;96771.56;6308237;22;20541;-92
2021/09/09 06:04:16;;;;;;;61.53;25.98;;;;;;;9.58;87.10;96729.97;6308150;22;20007;-93
2021/09/09 06:06:42;;;;;;;58.58;25.95;;;;;;;9.74;87.31;96747.25;6308406;22;20057;-93
2021/09/09 06:09:07;;;;;;;61.03;29.75;;;;;;;9.70;87.79;96747.41;6308143;22;20007;-94
2021/09/09 06:11:33;;;;;;;69.68;28.23;;;;;;;9.78;88.39;96737.06;6307937;22;20033;-93
2021/09/09 06:13:58;;;;;;;61.95;27.77;;;;;;;9.77;87.75;96744.44;6307632;22;20010;-92
2021/09/09 06:16:24;;;;;;;63.58;28.48;;;;;;;9.85;87.57;96742.97;6308271;22;20002;-92
2021/09/09 06:18:49;;;;;;;58.90;27.58;;;;;;;9.99;87.33;96760.69;6307640;22;20072;-92
2021/09/09 06:21:15;;;;;;;55.15;27.73;;;;;;;10.03;87.92;96761.31;6308070;22;20010;-95
2021/09/09 06:23:41;;;;;;;54.58;25.70;;;;;;;9.98;87.71;96743.66;6307311;22;20340;-93
2021/09/09 06:26:06;;;;;;;57.40;25.38;;;;;;;9.79;87.46;96742.03;6307539;22;20011;-93
2021/09/09 06:28:32;;;;;;;52.85;25.85;;;;;;;9.88;87.50;96752.94;6307811;22;20385;-93
2021/09/09 06:30:57;;;;;;;55.33;25.50;;;;;;;9.95;87.38;96744.53;6307258;22;20014;-92
2021/09/09 06:33:23;;;;;;;53.03;27.40;;;;;;;10.01;87.83;96741.25;6251431;22;20006;-93
2021/09/09 06:35:48;;;;;;;51.67;27.45;;;;;;;9.89;86.81;96735.47;6251582;22;20004;-94
2021/09/09 06:38:14;;;;;;;51.92;25.13;;;;;;;10.01;88.24;96738.53;6278713;22;20058;-93
2021/09/09 06:40:40;;;;;;;39.15;24.20;;;;;;;10.22;87.92;96757.47;6251625;22;20012;-95
2021/09/09 06:43:06;;;;;;;35.80;22.15;;;;;;;10.26;88.18;96759.34;6251507;22;19999;-93
2021/09/09 06:45:31;;;;;;;41.03;22.90;;;;;;;10.16;87.59;96742.97;6251453;22;20007;-95
2021/09/09 06:47:57;;;;;;;45.95;24.13;;;;;;;10.06;87.96;96737.97;6251444;22;20455;-94
2021/09/09 06:50:23;;;;;;;32.63;20.20;;;;;;;10.05;87.13;96728.31;6251361;22;20011;-94
2021/09/09 06:52:48;;;;;;;41.28;22.33;;;;;;;10.04;87.15;96705.09;6250442;22;20008;-93
2021/09/09 06:55:14;;;;;;;37.72;21.80;;;;;;;10.27;87.27;96733.72;6250048;22;20328;-92
2021/09/09 06:57:39;;;;;;;38.45;20.50;;;;;;;10.33;86.72;96731.94;6251129;22;20004;-92
2021/09/09 07:00:06;;;;;;;35.35;19.83;;;;;;;10.36;86.86;96737.22;6251185;22;20030;-92
2021/09/09 07:02:31;;;;;;;26.05;14.48;;;;;;;10.40;86.13;96737.84;6251284;22;20008;-93
2021/09/09 07:04:57;;;;;;;25.60;15.35;;;;;;;10.43;85.58;96725.31;6250924;22;20008;-94
2021/09/09 07:07:23;;;;;;;22.05;13.93;;;;;;;10.46;85.59;96724.44;6251106;22;20000;-92
2021/09/09 07:09:48;;;;;;;21.92;13.73;;;;;;;10.49;84.79;96729.75;6251187;22;20008;-92
2021/09/09 07:12:14;;;;;;;20.42;12.25;;;;;;;10.60;84.44;96734.75;6251020;22;20004;-93
2021/09/09 07:14:39;;;;;;;23.35;13.25;;;;;;;10.66;85.09;96729.50;6250449;22;20008;-93
2021/09/09 07:17:05;;;;;;;28.67;12.60;;;;;;;10.74;84.88;96725.28;6250776;22;20380;-92
2021/09/09 07:19:30;;;;;;;20.27;11.30;;;;;;;10.89;84.54;96725.47;6245390;22;20008;-94
2021/09/09 07:21:55;;;;;;;18.80;11.02;;;;;;;10.83;83.82;96713.69;6250495;22;20333;-92
2021/09/09 07:24:21;;;;;;;15.85;10.77;;;;;;;10.95;83.73;96718.97;6250577;22;20004;-92
2021/09/09 07:26:48;;;;;;;15.43;10.52;;;;;;;11.13;83.51;96725.63;6250208;22;20086;-93
2021/09/09 07:29:14;;;;;;;21.58;10.55;;;;;;;11.34;83.30;96735.59;6250426;22;20006;-93
2021/09/09 07:31:44;;;;;;;19.67;10.40;;;;;;;11.34;83.75;96723.97;6276979;22;20094;-92
2021/09/09 07:34:11;;;;;;;22.23;10.95;;;;;;;11.50;82.82;96731.81;6249945;22;20004;-92
2021/09/09 07:36:37;;;;;;;22.30;10.68;;;;;;;11.46;83.07;96718.41;6249980;22;20003;-92
2021/09/09 07:39:03;;;;;;;24.75;10.93;;;;;;;11.60;83.09;96714.28;6250587;22;20007;-93
2021/09/09 07:41:29;;;;;;;17.08;10.57;;;;;;;11.60;82.45;96695.25;6276819;22;20057;-93
2021/09/09 07:43:54;;;;;;;22.92;11.07;;;;;;;11.72;83.54;96715.34;6250472;22;20014;-92
2021/09/09 07:46:20;;;;;;;15.15;10.75;;;;;;;11.78;83.02;96711.53;6250489;22;20804;-92
2021/09/09 07:48:46;;;;;;;12.98;9.70;;;;;;;11.85;82.41;96705.06;6250553;22;20011;-94
2021/09/09 07:51:12;;;;;;;14.32;9.63;;;;;;;11.80;81.69;96692.78;6250679;22;20003;-94
2021/09/09 07:53:38;;;;;;;17.10;9.18;;;;;;;12.15;81.66;96721.63;6250629;22;20575;-93
2021/09/09 07:56:04;;;;;;;17.70;10.02;;;;;;;11.94;81.59;96683.25;6250654;22;20090;-94
2021/09/09 07:58:30;;;;;;;14.43;9.07;;;;;;;12.30;80.72;96715.06;6250665;22;20038;-94
2021/09/09 08:00:56;;;;;;;13.25;9.88;;;;;;;12.16;80.41;96676.84;6250570;22;20003;-94
2021/09/09 08:03:21;;;;;;;15.48;8.93;;;;;;;12.38;79.92;96701.09;6250763;22;20055;-93
2021/09/09 08:05:47;;;;;;;11.55;9.13;;;;;;;12.45;79.22;96696.06;6250854;22;20085;-94
2021/09/09 08:08:12;;;;;;;9.95;8.25;;;;;;;12.55;79.04;96694.03;6251020;22;20057;-93
2021/09/09 08:10:38;;;;;;;16.85;9.52;;;;;;;12.59;77.89;96689.94;6250627;22;20442;-94
2021/09/09 08:13:03;;;;;;;12.65;8.20;;;;;;;12.72;77.74;96694.41;6250632;22;20000;-93
2021/09/09 08:15:29;;;;;;;14.48;9.02;;;;;;;12.95;77.77;96710.00;6250580;22;20004;-95
2021/09/09 08:17:55;;;;;;;13.70;8.35;;;;;;;13.03;77.07;96708.44;6245495;22;20004;-93
2021/09/09 08:20:20;;;;;;;13.30;8.57;;;;;;;13.02;77.21;96690.56;6250378;22;20007;-93
2021/09/09 08:22:46;;;;;;;11.32;8.00;;;;;;;13.19;74.90;96701.81;6249853;22;20007;-95
2021/09/09 08:25:12;;;;;;;8.93;7.72;;;;;;;13.14;74.46;96683.34;6250047;22;20057;-93
2021/09/09 08:27:38;;;;;;;11.18;7.70;;;;;;;13.31;74.60;96689.91;6250417;22;20031;-93
2021/09/09 08:30:04;;;;;;;9.10;7.35;;;;;;;13.47;74.58;96696.91;6250318;22;20003;-93
2021/09/09 08:32:30;;;;;;;10.38;8.20;;;;;;;13.48;75.51;96684.03;6284783;22;20073;-93
2021/09/09 08:34:56;;;;;;;11.95;8.30;;;;;;;13.66;75.00;96689.31;6306929;22;20011;-94
2021/09/09 08:37:23;;;;;;;11.27;7.75;;;;;;;13.79;75.20;96687.03;6308340;22;20007;-94
2021/09/09 08:39:49;;;;;;;10.93;8.35;;;;;;;13.77;75.37;96669.63;6308417;22;20030;-94
2021/09/09 08:42:15;;;;;;;11.70;8.60;;;;;;;13.95;75.26;96677.63;6310437;22;19999;-93
2021/09/09 08:44:42;;;;;;;10.02;7.82;;;;;;;13.99;75.44;96661.81;6309018;22;20347;-92
2021/09/09 08:47:09;;;;;;;10.65;7.68;;;;;;;14.00;74.54;96646.91;6307664;22;20424;-92
2021/09/09 08:49:35;;;;;;;15.98;7.97;;;;;;;14.14;72.89;96651.59;6308641;22;20015;-93
2021/09/09 08:52:03;;;;;;;10.48;7.18;;;;;;;14.35;72.87;96665.31;6308740;22;20441;-92
2021/09/09 08:54:29;;;;;;;11.60;7.28;;;;;;;14.50;73.20;96668.78;6308129;22;20060;-93
2021/09/09 08:56:55;;;;;;;11.85;7.30;;;;;;;14.52;73.63;96660.88;6307811;22;20006;-93
2021/09/09 08:59:21;;;;;;;9.25;6.93;;;;;;;14.60;72.58;96655.75;6308809;22;20063;-92
2021/09/09 09:02:08;;;;;;;9.98;7.25;;;;;;;14.78;72.35;96662.94;6308139;22;20078;-93
2021/09/09 09:04:35;;;;;;;10.20;7.60;;;;;;;14.88;73.20;96670.53;6309078;22;20094;-91
2021/09/09 09:07:02;;;;;;;10.90;7.10;;;;;;;14.95;71.73;96663.91;6308548;22;20095;-92
2021/09/09 09:09:36;;;;;;;12.63;7.55;;;;;;;14.87;69.44;96636.22;6307296;22;20408;-92
2021/09/09 09:12:10;;;;;;;8.05;6.78;;;;;;;14.99;70.55;96637.09;6308741;22;20003;-92
2021/09/09 09:14:36;;;;;;;10.88;7.53;;;;;;;15.10;72.36;96645.44;6310049;22;20003;-92
2021/09/09 09:17:05;;;;;;;11.45;7.25;;;;;;;15.29;68.47;96639.66;6307758;22;19999;-92
2021/09/09 09:19:38;;;;;;;10.52;6.95;;;;;;;15.45;67.67;96653.50;6308544;22;20011;-92
2021/09/09 09:22:13;;;;;;;10.55;6.70;;;;;;;15.60;67.71;96652.63;6308469;22;19999;-91
2021/09/09 09:24:46;;;;;;;8.00;6.50;;;;;;;15.67;66.38;96644.78;6306973;22;20428;-93
2021/09/09 09:27:13;;;;;;;8.75;6.38;;;;;;;15.81;67.34;96639.66;6307682;22;20044;-92
2021/09/09 09:29:40;;;;;;;10.32;6.45;;;;;;;15.92;67.10;96643.22;6308194;22;19995;-91
2021/09/09 09:32:18;;;;;;;9.85;6.35;;;;;;;15.91;66.07;96619.06;6307407;22;20015;-92
2021/09/09 09:34:45;;;;;;;9.13;6.13;;;;;;;16.03;66.68;96622.63;6308039;22;20082;-91
2021/09/09 09:37:11;;;;;;;9.18;6.30;;;;;;;16.09;66.91;96612.50;6308211;22;20003;-91
2021/09/09 09:39:38;;;;;;;11.02;6.13;;;;;;;16.31;65.49;96618.09;6307030;22;20439;-90
2021/09/09 09:42:06;;;;;;;6.70;6.00;;;;;;;16.44;64.50;96626.63;6308669;22;20003;-91
2021/09/09 09:44:36;;;;;;;9.73;5.88;;;;;;;16.55;70.43;96627.94;6308354;22;20101;-90
2021/09/09 09:47:12;;;;;;;7.40;5.40;;;;;;;16.64;66.27;96625.75;6303284;22;20432;-91
2021/09/09 09:49:46;;;;;;;8.63;5.50;;;;;;;16.48;65.40;96597.00;6306894;22;20003;-91
2021/09/09 09:52:26;;;;;;;9.38;5.63;;;;;;;16.71;63.26;96621.81;6307689;22;20060;-91
2021/09/09 09:54:53;;;;;;;7.05;5.32;;;;;;;16.63;64.14;96602.31;6306719;22;20021;-91
2021/09/09 09:57:28;;;;;;;6.55;5.45;;;;;;;16.69;63.47;96608.56;6309422;22;20428;-92
2021/09/09 09:59:54;;;;;;;7.32;5.88;;;;;;;16.77;62.39;96593.16;6307867;22;20720;-91
2021/09/09 10:02:20;;;;;;;9.60;5.38;;;;;;;16.91;62.90;96615.41;6307161;22;20009;-91
2021/09/09 10:04:49;;;;;;;7.25;5.18;;;;;;;16.98;63.69;96606.72;6307381;22;20090;-91
2021/09/09 10:07:15;;;;;;;8.48;5.30;;;;;;;16.97;60.53;96589.50;6306319;22;20007;-92
2021/09/09 10:09:42;;;;;;;7.68;5.30;;;;;;;17.26;57.95;96599.31;6307243;22;20007;-91
2021/09/09 10:12:09;;;;;;;6.97;4.78;;;;;;;17.29;56.52;96592.06;6305979;22;20003;-92
2021/09/09 10:14:39;;;;;;;8.57;4.75;;;;;;;17.29;58.44;96564.63;6306236;22;20060;-91
2021/09/09 10:17:08;;;;;;;8.93;4.57;;;;;;;17.48;55.10;96582.13;6304965;22;20086;-90
2021/09/09 10:19:34;;;;;;;9.02;4.45;;;;;;;17.72;55.57;96594.59;6307234;22;20164;-91
2021/09/09 10:22:10;;;;;;;8.75;4.60;;;;;;;17.84;54.77;96590.63;6307462;22;20034;-91
2021/09/09 10:24:37;;;;;;;5.47;4.47;;;;;;;17.91;54.46;96587.38;6307825;22;20003;-91
2021/09/09 10:27:21;;;;;;;7.30;4.45;;;;;;;18.06;54.00;96582.38;6307311;22;20007;-91
2021/09/09 10:30:00;;;;;;;7.63;4.68;;;;;;;18.18;54.69;96576.84;6307538;22;20010;-90
2021/09/09 10:32:28;;;;;;;6.40;4.57;;;;;;;18.30;52.91;96581.06;6307072;22;20019;-91
2021/09/09 10:35:19;;;;;;;7.10;4.43;;;;;;;18.45;55.12;96580.78;6307593;22;20014;-91
2021/09/09 10:37:53;;;;;;;8.23;4.35;;;;;;;18.49;55.44;96559.28;6307405;22;20003;-90
2021/09/09 10:40:28;;;;;;;7.50;4.60;;;;;;;18.70;54.40;96574.22;6303439;22;20003;-90
2021/09/09 10:42:53;;;;;;;7.80;4.78;;;;;;;18.66;53.46;96553.72;6307230;22;20003;-91
2021/09/09 10:45:34;;;;;;;8.23;4.22;;;;;;;18.94;52.97;96570.09;6307035;22;20386;-91
2021/09/09 10:48:05;;;;;;;7.43;4.72;;;;;;;18.93;56.18;96552.09;6307489;22;20011;-89
2021/09/09 10:50:31;;;;;;;5.55;4.03;;;;;;;19.15;53.12;96559.47;6311167;22;20393;-88
2021/09/09 10:53:05;;;;;;;6.32;4.57;;;;;;;19.21;51.21;96554.69;6310421;22;20031;-92
2021/09/09 10:55:34;;;;;;;10.73;4.90;;;;;;;19.40;53.76;96563.81;6315210;22;20026;-90
2021/09/09 10:58:29;;;;;;;7.10;4.47;;;;;;;19.52;50.72;96561.72;6307367;22;20007;-91
2021/09/09 11:01:02;;;;;;;5.50;3.97;;;;;;;19.66;52.68;96560.66;6306667;22;20003;-91
2021/09/09 11:03:42;;;;;;;7.45;4.80;;;;;;;19.75;52.72;96559.56;6309569;22;20029;-91
2021/09/09 11:06:20;;;;;;;6.80;4.97;;;;;;;19.81;52.14;96555.47;6307098;22;20034;-92
2021/09/09 11:08:48;;;;;;;6.65;4.45;;;;;;;19.99;53.91;96548.56;6307119;22;20006;-92
2021/09/09 11:11:16;;;;;;;7.75;5.05;;;;;;;20.00;53.41;96532.78;6307201;22;20007;-92
2021/09/09 11:13:42;;;;;;;5.45;3.97;;;;;;;20.15;47.31;96538.63;6307248;22;20007;-92
2021/09/09 11:16:21;;;;;;;7.07;4.07;;;;;;;20.31;50.51;96536.97;6307254;22;20446;-92
2021/09/09 11:18:47;;;;;;;5.70;3.85;;;;;;;20.46;51.51;96542.06;6307313;22;20010;-92
2021/09/09 11:21:18;;;;;;;7.50;4.38;;;;;;;20.41;49.51;96527.06;6307157;22;20007;-93
2021/09/09 11:23:45;;;;;;;7.32;4.22;;;;;;;20.50;51.52;96525.97;6319453;22;20003;-90
2021/09/09 11:26:20;;;;;;;5.90;4.20;;;;;;;20.56;48.71;96518.38;6308623;22;20007;-90
2021/09/09 11:28:50;;;;;;;6.25;3.95;;;;;;;20.76;49.10;96539.94;6311224;22;20373;-90